Time;durP1;ratioP1;P1;durP2;ratioP2;P2;SDS_P1;SDS_P2;PMS_P1;PMS_P2;Temp;Humidity;BMP_temperature;BMP_pressure;BME280_temperature;BME280_humidity;BME280_pressure;Samples;Min_cycle;Max_cycle;Signal;HPM_P1;HPM_P2
2020/12/05 00:00:44;;;;;;;81.72;30.13;;;0.40;92.10;;;;;;5054390;28;20029;-63
2020/12/05 00:03:10;;;;;;;79.10;30.73;;;0.40;92.10;;;;;;5054581;28;20566;-62
2020/12/05 00:05:35;;;;;;;66.38;24.40;;;0.40;92.10;;;;;;5051779;28;20130;-62
2020/12/05 00:08:01;;;;;;;80.43;29.88;;;0.40;92.00;;;;;;5054466;28;20095;-62
2020/12/05 00:10:28;;;;;;;93.15;32.55;;;0.40;92.00;;;;;;5054158;28;20114;-62
2020/12/05 00:12:53;;;;;;;81.72;32.17;;;0.40;92.00;;;;;;5052705;28;20043;-63
2020/12/05 00:15:19;;;;;;;95.45;35.65;;;0.40;92.00;;;;;;5052780;28;20028;-64
2020/12/05 00:17:45;;;;;;;87.18;33.88;;;0.40;92.00;;;;;;5036401;28;20132;-63
2020/12/05 00:20:10;;;;;;;85.25;35.40;;;0.40;92.10;;;;;;5043255;28;20096;-63
2020/12/05 00:22:37;;;;;;;84.55;31.25;;;0.40;92.20;;;;;;5052653;28;20364;-63
2020/12/05 00:25:03;;;;;;;78.72;29.40;;;0.40;92.20;;;;;;5053906;28;20017;-64
2020/12/05 00:27:29;;;;;;;92.25;31.77;;;0.40;92.10;;;;;;5052243;28;20394;-64
2020/12/05 00:29:55;;;;;;;89.75;31.63;;;0.40;92.10;;;;;;5053473;28;20031;-63
2020/12/05 00:32:21;;;;;;;95.05;33.03;;;0.40;92.10;;;;;;5053685;28;20025;-64
2020/12/05 00:34:47;;;;;;;90.72;30.38;;;0.40;92.20;;;;;;5052325;28;20079;-63
2020/12/05 00:37:13;;;;;;;86.28;30.05;;;0.40;92.40;;;;;;5052834;28;20037;-63
2020/12/05 00:39:38;;;;;;;86.43;29.85;;;0.40;92.30;;;;;;5052039;28;20437;-63
2020/12/05 00:42:04;;;;;;;102.38;34.35;;;0.50;92.30;;;;;;5054068;28;20405;-63
2020/12/05 00:44:30;;;;;;;100.07;34.22;;;0.50;92.20;;;;;;5053579;28;20542;-63
2020/12/05 00:46:56;;;;;;;73.18;26.63;;;0.40;92.20;;;;;;5053122;28;20078;-63
2020/12/05 00:49:22;;;;;;;98.97;34.47;;;0.50;92.10;;;;;;5052286;28;20111;-63
2020/12/05 00:51:48;;;;;;;98.68;34.70;;;0.40;92.30;;;;;;5053137;28;20029;-63
2020/12/05 00:54:15;;;;;;;106.07;35.78;;;0.40;92.10;;;;;;5053694;28;20074;-63
2020/12/05 00:56:41;;;;;;;112.00;37.38;;;0.40;92.00;;;;;;5051886;28;20104;-63
2020/12/05 00:59:07;;;;;;;124.55;40.08;;;0.40;92.20;;;;;;5053310;28;20091;-63
2020/12/05 01:01:32;;;;;;;141.02;44.65;;;0.40;92.20;;;;;;5052850;28;20059;-62
2020/12/05 01:03:58;;;;;;;135.95;40.85;;;0.40;92.30;;;;;;5052018;28;20431;-62
2020/12/05 01:06:24;;;;;;;121.65;37.58;;;0.40;92.20;;;;;;5053296;28;20450;-62
2020/12/05 01:08:49;;;;;;;121.50;36.38;;;0.40;92.30;;;;;;5052962;28;20036;-61
2020/12/05 01:11:17;;;;;;;123.95;39.65;;;0.40;92.20;;;;;;5053090;28;20025;-62
2020/12/05 01:13:44;;;;;;;116.45;35.53;;;0.40;92.10;;;;;;5051658;28;20087;-63
2020/12/05 01:16:15;;;;;;;139.30;40.45;;;0.40;92.00;;;;;;5051758;28;20035;-62
2020/12/05 01:18:41;;;;;;;133.18;41.28;;;0.40;92.10;;;;;;5052097;28;20530;-63
2020/12/05 01:21:11;;;;;;;157.48;43.95;;;0.40;92.20;;;;;;5052917;28;20075;-63
2020/12/05 01:23:38;;;;;;;141.85;38.03;;;0.40;92.30;;;;;;5051640;28;20029;-63
2020/12/05 01:26:04;;;;;;;146.00;42.30;;;0.40;92.30;;;;;;5052718;28;20436;-63
2020/12/05 01:28:31;;;;;;;138.45;40.20;;;0.40;92.30;;;;;;5051633;28;20027;-62
2020/12/05 01:30:57;;;;;;;157.57;43.40;;;0.40;92.20;;;;;;5051849;28;20029;-63
2020/12/05 01:33:23;;;;;;;156.25;42.53;;;0.40;92.20;;;;;;5038667;28;20067;-63
2020/12/05 01:35:48;;;;;;;165.73;43.85;;;0.40;92.20;;;;;;5052757;28;20090;-63
2020/12/05 01:38:14;;;;;;;163.65;42.40;;;0.50;92.40;;;;;;5051570;28;20017;-64
2020/12/05 01:40:47;;;;;;;163.38;44.58;;;0.40;92.30;;;;;;5051729;28;20126;-64
2020/12/05 01:43:13;;;;;;;156.32;44.63;;;0.40;92.30;;;;;;5052480;28;20033;-63
2020/12/05 01:45:39;;;;;;;153.93;43.30;;;0.50;92.30;;;;;;5051387;28;20116;-64
2020/12/05 01:48:05;;;;;;;177.20;46.13;;;0.50;92.40;;;;;;5052901;28;20087;-64
2020/12/05 01:50:31;;;;;;;173.85;48.70;;;0.50;92.40;;;;;;5052780;28;20018;-64
2020/12/05 01:52:57;;;;;;;149.40;42.10;;;0.50;92.40;;;;;;5051785;28;20033;-64
2020/12/05 01:55:22;;;;;;;159.38;43.92;;;0.50;92.20;;;;;;5049249;28;20107;-62
2020/12/05 01:57:48;;;;;;;171.77;45.53;;;0.50;92.20;;;;;;5052550;28;20117;-62
2020/12/05 02:00:14;;;;;;;158.32;43.78;;;0.40;92.10;;;;;;5052697;28;20025;-62
2020/12/05 02:02:39;;;;;;;132.02;38.53;;;0.40;92.10;;;;;;5051298;28;20445;-62
2020/12/05 02:05:16;;;;;;;170.50;44.40;;;0.40;92.00;;;;;;5052350;28;20036;-63
2020/12/05 02:07:51;;;;;;;171.50;44.47;;;0.40;92.10;;;;;;5052298;28;20032;-62
2020/12/05 02:10:25;;;;;;;157.90;42.47;;;0.40;92.20;;;;;;5051316;28;20459;-62
2020/12/05 02:13:08;;;;;;;162.02;42.58;;;0.40;92.40;;;;;;5051454;28;20029;-62
2020/12/05 02:15:34;;;;;;;180.02;45.63;;;0.40;92.30;;;;;;5052356;28;20101;-62
2020/12/05 02:18:08;;;;;;;171.85;45.67;;;0.40;92.30;;;;;;5052501;28;20029;-62
2020/12/05 02:20:37;;;;;;;181.18;45.72;;;0.40;92.30;;;;;;5052233;28;20025;-62
2020/12/05 02:23:18;;;;;;;142.65;39.67;;;0.40;92.20;;;;;;5051415;28;20111;-63
2020/12/05 02:25:48;;;;;;;152.50;38.85;;;0.40;92.30;;;;;;5051953;28;20017;-63
2020/12/05 02:28:17;;;;;;;116.97;34.47;;;0.40;92.20;;;;;;5046083;28;20056;-61
2020/12/05 02:30:43;;;;;;;155.00;38.40;;;0.30;92.10;;;;;;5055704;28;20487;-64
2020/12/05 02:33:09;;;;;;;152.48;41.92;;;0.30;92.10;;;;;;5054369;28;20033;-63
2020/12/05 02:35:35;;;;;;;137.30;35.80;;;0.30;92.20;;;;;;5055330;28;20027;-63
2020/12/05 02:38:14;;;;;;;138.85;39.13;;;0.30;92.30;;;;;;5054856;28;20429;-63
2020/12/05 02:40:41;;;;;;;150.68;37.78;;;0.30;92.30;;;;;;5055717;28;20032;-63
2020/12/05 02:43:07;;;;;;;143.32;37.22;;;0.30;92.40;;;;;;5055743;28;20025;-63
2020/12/05 02:45:33;;;;;;;153.35;41.90;;;0.30;92.40;;;;;;5055446;28;20044;-64
2020/12/05 02:48:01;;;;;;;153.85;40.25;;;0.30;92.50;;;;;;5055730;28;20017;-63
2020/12/05 02:50:27;;;;;;;155.35;42.25;;;0.40;92.40;;;;;;5055928;28;20029;-63
2020/12/05 02:52:53;;;;;;;131.90;37.33;;;0.40;92.40;;;;;;5055704;28;20021;-63
2020/12/05 02:55:18;;;;;;;163.23;39.97;;;0.40;92.40;;;;;;5056055;28;20021;-63
2020/12/05 02:57:44;;;;;;;153.05;39.33;;;0.40;92.40;;;;;;5055239;28;20040;-63
2020/12/05 03:00:10;;;;;;;172.38;40.05;;;0.40;92.40;;;;;;5055592;28;20033;-63
2020/12/05 03:02:35;;;;;;;174.20;41.80;;;0.40;92.30;;;;;;5055566;28;20376;-63
2020/12/05 03:05:01;;;;;;;180.55;42.55;;;0.40;92.30;;;;;;5051604;28;20021;-63
2020/12/05 03:07:27;;;;;;;173.93;43.00;;;0.30;92.30;;;;;;5044088;28;20033;-64
2020/12/05 03:09:52;;;;;;;167.15;40.45;;;0.30;92.40;;;;;;5055240;28;20029;-63
2020/12/05 03:12:18;;;;;;;196.30;45.95;;;0.40;92.50;;;;;;5055396;28;20375;-63
2020/12/05 03:14:44;;;;;;;169.88;41.47;;;0.40;92.50;;;;;;5054960;28;20032;-75
2020/12/05 03:17:10;;;;;;;202.48;45.58;;;0.40;92.50;;;;;;5054261;28;20070;-63
2020/12/05 03:19:35;;;;;;;130.63;33.65;;;0.40;92.40;;;;;;5055182;28;20021;-63
2020/12/05 03:22:01;;;;;;;162.20;40.60;;;0.40;92.40;;;;;;5055070;28;20021;-63
2020/12/05 03:24:27;;;;;;;180.77;41.53;;;0.50;92.40;;;;;;5055223;28;20025;-63
2020/12/05 03:26:52;;;;;;;150.20;38.30;;;0.40;92.50;;;;;;5053566;28;20512;-63
2020/12/05 03:29:18;;;;;;;143.80;38.22;;;0.40;92.50;;;;;;5054877;28;20021;-63
2020/12/05 03:31:49;;;;;;;156.38;39.70;;;0.40;92.60;;;;;;5053639;28;20044;-63
2020/12/05 03:34:16;;;;;;;142.45;35.70;;;0.40;92.50;;;;;;5040690;28;20467;-63
2020/12/05 03:36:43;;;;;;;147.70;39.33;;;0.40;92.50;;;;;;5054985;28;20024;-63
2020/12/05 03:39:09;;;;;;;146.27;38.17;;;0.40;92.50;;;;;;5053720;28;20021;-63
2020/12/05 03:41:35;;;;;;;158.35;40.58;;;0.40;92.50;;;;;;5054658;28;20451;-62
2020/12/05 03:44:01;;;;;;;147.23;39.88;;;0.50;92.60;;;;;;5054684;28;20029;-62
2020/12/05 03:46:27;;;;;;;144.68;39.80;;;0.50;92.60;;;;;;5054845;28;20048;-62
2020/12/05 03:48:53;;;;;;;156.65;39.40;;;0.50;92.80;;;;;;5054507;28;20021;-63
2020/12/05 03:51:19;;;;;;;166.70;42.33;;;0.60;92.70;;;;;;5054692;28;20459;-62
2020/12/05 03:53:44;;;;;;;164.40;39.35;;;0.60;92.70;;;;;;5054396;28;20450;-62
2020/12/05 03:56:11;;;;;;;147.25;34.85;;;0.60;92.60;;;;;;5054631;28;20025;-62
2020/12/05 03:58:38;;;;;;;152.05;36.70;;;0.60;92.60;;;;;;5053350;28;20029;-65
2020/12/05 04:01:04;;;;;;;138.52;35.67;;;0.60;92.60;;;;;;5052394;28;20029;-66
2020/12/05 04:03:30;;;;;;;174.95;38.70;;;0.60;92.50;;;;;;5054158;28;20470;-65
2020/12/05 04:05:55;;;;;;;171.75;39.67;;;0.60;92.40;;;;;;5054059;28;20029;-65
2020/12/05 04:08:21;;;;;;;193.25;41.08;;;0.60;92.50;;;;;;5054326;28;20028;-64
2020/12/05 04:10:47;;;;;;;158.77;40.80;;;0.50;92.50;;;;;;5054240;28;20033;-64
2020/12/05 04:13:12;;;;;;;160.48;40.55;;;0.50;92.70;;;;;;5052514;28;20111;-64
2020/12/05 04:15:38;;;;;;;190.52;43.65;;;0.60;92.70;;;;;;5054067;28;20021;-64
2020/12/05 04:18:05;;;;;;;180.52;40.78;;;0.60;92.70;;;;;;5052833;28;20100;-64
2020/12/05 04:20:31;;;;;;;191.45;44.85;;;0.60;92.70;;;;;;5052568;28;20072;-64
2020/12/05 04:22:57;;;;;;;230.95;52.33;;;0.60;92.60;;;;;;5052695;28;20087;-64
2020/12/05 04:25:23;;;;;;;178.27;43.55;;;0.60;92.70;;;;;;5052343;28;20021;-65
2020/12/05 04:27:50;;;;;;;175.30;38.67;;;0.60;92.80;;;;;;5053709;28;20036;-65
2020/12/05 04:30:16;;;;;;;159.20;38.53;;;0.60;92.70;;;;;;5052503;28;20037;-64
2020/12/05 04:32:42;;;;;;;174.25;40.22;;;0.60;92.60;;;;;;5053855;28;20029;-64
2020/12/05 04:35:08;;;;;;;178.68;43.50;;;0.60;92.50;;;;;;5053925;28;20025;-65
2020/12/05 04:37:34;;;;;;;195.07;50.55;;;0.60;92.70;;;;;;5039498;28;20079;-64
2020/12/05 04:40:00;;;;;;;162.23;39.33;;;0.60;92.70;;;;;;5053505;28;20029;-65
2020/12/05 04:42:26;;;;;;;156.95;41.83;;;0.60;92.70;;;;;;5053868;28;20028;-64
2020/12/05 04:44:53;;;;;;;124.97;34.30;;;0.60;92.70;;;;;;5053936;28;20067;-64
2020/12/05 04:47:18;;;;;;;129.98;36.60;;;0.60;92.70;;;;;;5053386;28;20033;-64
2020/12/05 04:49:45;;;;;;;159.07;44.33;;;0.70;92.70;;;;;;5053247;28;20100;-64
2020/12/05 04:52:40;;;;;;;148.68;42.22;;;0.60;92.60;;;;;;5052845;28;20059;-64
2020/12/05 04:55:06;;;;;;;126.30;35.63;;;0.60;92.70;;;;;;5052284;28;20115;-64
2020/12/05 04:57:44;;;;;;;118.47;34.00;;;0.60;92.60;;;;;;5053034;28;20463;-64
2020/12/05 05:00:10;;;;;;;124.00;35.53;;;0.60;92.60;;;;;;5052388;28;20032;-64
2020/12/05 05:02:41;;;;;;;120.07;34.60;;;0.60;92.70;;;;;;5053392;28;20041;-64
2020/12/05 05:05:12;;;;;;;123.65;36.10;;;0.60;92.70;;;;;;5051547;28;20020;-64
2020/12/05 05:07:51;;;;;;;121.82;36.10;;;0.60;92.70;;;;;;5051552;28;20408;-64
2020/12/05 05:10:21;;;;;;;108.22;33.00;;;0.50;92.60;;;;;;5051764;28;20131;-64
2020/12/05 05:12:47;;;;;;;142.32;40.55;;;0.50;92.50;;;;;;5051872;28;20391;-64
2020/12/05 05:15:29;;;;;;;114.93;34.42;;;0.50;92.60;;;;;;5051636;28;20025;-65
2020/12/05 05:18:03;;;;;;;130.18;37.95;;;0.50;92.70;;;;;;5053259;28;20032;-65
2020/12/05 05:20:37;;;;;;;129.40;37.78;;;0.60;92.80;;;;;;5052958;28;20029;-65
2020/12/05 05:23:11;;;;;;;123.03;37.03;;;0.50;92.80;;;;;;5051647;28;20029;-65
2020/12/05 05:26:02;;;;;;;122.15;36.85;;;0.50;92.80;;;;;;5051449;28;20211;-65
2020/12/05 05:28:33;;;;;;;119.68;35.58;;;0.50;92.70;;;;;;5052875;28;20390;-65
2020/12/05 05:33:45;;;;;;;126.35;37.70;;;0.60;92.80;;;;;;5052650;28;20029;-65
2020/12/05 05:36:25;;;;;;;128.50;37.67;;;0.60;92.80;;;;;;5051568;28;20021;-68
2020/12/05 05:39:05;;;;;;;147.23;42.30;;;0.60;92.80;;;;;;5051340;28;20037;-66
2020/12/05 05:41:32;;;;;;;127.97;38.55;;;0.60;93.00;;;;;;5051452;28;20056;-65
2020/12/05 05:44:05;;;;;;;115.88;36.50;;;0.70;92.90;;;;;;5051390;28;20033;-63
2020/12/05 05:46:36;;;;;;;130.40;41.90;;;0.70;92.90;;;;;;5051629;28;20394;-65
2020/12/05 05:49:03;;;;;;;120.38;37.60;;;0.70;92.80;;;;;;5051409;28;20040;-64
2020/12/05 05:51:48;;;;;;;118.63;36.58;;;0.70;92.80;;;;;;5052350;28;20037;-65
2020/12/05 05:54:15;;;;;;;134.73;40.60;;;0.70;92.90;;;;;;5052643;28;20036;-67
2020/12/05 05:57:00;;;;;;;135.70;41.85;;;0.70;93.00;;;;;;5051556;28;20051;-65
2020/12/05 05:59:38;;;;;;;128.85;41.90;;;0.70;92.90;;;;;;5052240;28;20107;-68
2020/12/05 06:02:06;;;;;;;133.20;38.88;;;0.70;92.90;;;;;;5052533;28;20056;-66
2020/12/05 06:04:40;;;;;;;141.75;45.45;;;0.80;93.00;;;;;;5056376;28;20463;-65
2020/12/05 06:07:08;;;;;;;123.88;40.50;;;0.80;93.10;;;;;;5055310;28;20051;-64
2020/12/05 06:09:47;;;;;;;130.00;42.35;;;0.80;92.90;;;;;;5056167;28;20383;-64
2020/12/05 06:12:21;;;;;;;110.50;35.95;;;0.80;92.90;;;;;;5044197;28;20143;-64
2020/12/05 06:14:48;;;;;;;105.28;32.63;;;0.80;92.70;;;;;;5055019;28;20032;-65
2020/12/05 06:17:16;;;;;;;102.00;33.60;;;0.80;92.80;;;;;;5056558;28;20476;-64
2020/12/05 06:19:42;;;;;;;104.72;35.33;;;0.80;92.80;;;;;;5056380;28;20025;-64
2020/12/05 06:22:40;;;;;;;81.90;29.92;;;0.80;92.80;;;;;;5055924;28;20029;-64
2020/12/05 06:25:12;;;;;;;88.65;30.98;;;0.80;92.90;;;;;;5046548;28;20041;-64
2020/12/05 06:27:48;;;;;;;88.85;32.85;;;0.80;92.90;;;;;;5055465;28;20033;-64
2020/12/05 06:30:14;;;;;;;90.63;34.85;;;0.80;93.00;;;;;;5054822;28;20394;-65
2020/12/05 06:32:41;;;;;;;89.53;35.15;;;0.90;93.20;;;;;;5055937;28;20037;-64
2020/12/05 06:35:32;;;;;;;94.50;34.53;;;0.90;93.20;;;;;;5056247;28;20553;-64
2020/12/05 06:37:58;;;;;;;82.38;33.22;;;1.00;93.20;;;;;;5045328;28;20480;-64
2020/12/05 06:40:24;;;;;;;85.68;33.50;;;1.00;93.20;;;;;;5055760;28;20025;-63
2020/12/05 06:42:52;;;;;;;79.70;33.35;;;1.00;93.10;;;;;;5056058;28;20370;-64
2020/12/05 06:45:27;;;;;;;70.07;29.23;;;1.10;93.20;;;;;;5054645;28;20383;-64
2020/12/05 06:48:12;;;;;;;76.53;30.30;;;1.10;93.10;;;;;;5037733;28;20037;-64
2020/12/05 06:50:43;;;;;;;70.78;27.17;;;1.10;92.90;;;;;;5043994;28;20160;-65
2020/12/05 06:53:21;;;;;;;54.67;21.95;;;1.10;92.60;;;;;;5052114;28;20118;-64
2020/12/05 06:55:48;;;;;;;68.18;26.50;;;1.00;92.60;;;;;;5050049;28;20075;-65
2020/12/05 06:58:14;;;;;;;66.20;27.30;;;1.00;92.60;;;;;;5047004;28;20021;-66
2020/12/05 07:00:40;;;;;;;65.55;26.90;;;1.00;92.60;;;;;;5050921;28;20032;-71
2020/12/05 07:03:10;;;;;;;50.35;23.92;;;0.90;92.50;;;;;;5050427;28;20052;-65
2020/12/05 07:05:41;;;;;;;58.53;24.33;;;0.90;92.30;;;;;;5041883;28;20041;-64
2020/12/05 07:08:31;;;;;;;69.10;28.75;;;0.80;92.30;;;;;;5050707;28;20068;-66
2020/12/05 07:11:16;;;;;;;68.90;27.02;;;0.80;92.40;;;;;;5052697;28;20359;-66
2020/12/05 07:13:45;;;;;;;71.00;28.02;;;0.80;92.50;;;;;;5056753;28;20076;-64
2020/12/05 07:16:22;;;;;;;65.50;29.42;;;0.80;92.60;;;;;;5063852;28;20040;-65
2020/12/05 07:18:54;;;;;;;81.13;29.58;;;0.80;92.80;;;;;;5064772;28;20044;-66
2020/12/05 07:21:22;;;;;;;67.50;27.27;;;0.80;92.80;;;;;;5061860;28;20420;-63
2020/12/05 07:23:48;;;;;;;63.97;27.20;;;0.80;92.70;;;;;;5062917;28;20494;-64
2020/12/05 07:26:15;;;;;;;54.67;23.40;;;0.80;92.60;;;;;;5044351;28;20105;-64
2020/12/05 07:28:48;;;;;;;69.82;30.33;;;0.80;92.50;;;;;;5046480;28;20044;-64
2020/12/05 07:31:15;;;;;;;64.03;25.88;;;0.80;92.40;;;;;;5043843;28;20024;-65
2020/12/05 07:33:42;;;;;;;60.40;25.80;;;0.80;92.40;;;;;;5040420;28;20082;-64
2020/12/05 07:36:09;;;;;;;58.35;25.13;;;0.70;92.30;;;;;;5046805;28;20030;-64
2020/12/05 07:38:37;;;;;;;57.40;24.30;;;0.70;92.30;;;;;;5040197;28;20072;-66
2020/12/05 07:41:09;;;;;;;49.47;22.73;;;0.70;92.30;;;;;;5052797;28;20467;-67
2020/12/05 07:43:35;;;;;;;67.38;29.80;;;0.70;92.30;;;;;;5042991;28;20074;-67
2020/12/05 07:46:03;;;;;;;63.85;27.20;;;0.70;92.30;;;;;;5045301;28;20037;-66
2020/12/05 07:48:29;;;;;;;57.42;25.48;;;0.70;92.40;;;;;;5035134;28;20033;-65
2020/12/05 07:50:55;;;;;;;65.82;29.70;;;0.70;92.30;;;;;;5036193;28;20391;-66
2020/12/05 07:53:28;;;;;;;67.65;29.25;;;0.60;92.30;;;;;;5035546;28;20091;-65
2020/12/05 07:55:55;;;;;;;59.08;26.20;;;0.70;92.50;;;;;;5038578;28;20117;-65
2020/12/05 07:58:22;;;;;;;68.75;29.90;;;0.70;92.50;;;;;;5046697;28;20507;-66
2020/12/05 08:00:52;;;;;;;68.80;28.65;;;0.70;92.50;;;;;;5040360;28;20032;-66
2020/12/05 08:03:29;;;;;;;78.82;31.55;;;0.70;92.40;;;;;;5038390;28;20506;-65
2020/12/05 08:05:58;;;;;;;67.70;29.02;;;0.70;92.40;;;;;;5040367;28;20037;-64
2020/12/05 08:08:28;;;;;;;66.85;30.30;;;0.80;92.60;;;;;;5036994;28;20029;-68
2020/12/05 08:11:02;;;;;;;65.50;26.85;;;0.70;92.50;;;;;;5039027;28;20458;-69
2020/12/05 08:13:30;;;;;;;61.88;26.25;;;0.70;92.20;;;;;;5040131;28;20035;-65
2020/12/05 08:16:01;;;;;;;55.25;23.27;;;0.70;92.20;;;;;;5035740;28;20030;-68
2020/12/05 08:18:28;;;;;;;59.55;26.58;;;0.70;92.20;;;;;;5046292;28;20025;-66
2020/12/05 08:20:54;;;;;;;56.17;24.23;;;0.70;92.30;;;;;;5044352;28;20091;-65
2020/12/05 08:23:27;;;;;;;56.75;25.58;;;0.70;92.20;;;;;;5045529;28;20038;-68
2020/12/05 08:26:05;;;;;;;59.58;26.58;;;0.70;92.20;;;;;;5041893;28;20033;-64
2020/12/05 08:28:40;;;;;;;62.22;26.85;;;0.70;92.30;;;;;;5041613;28;20368;-64
2020/12/05 08:31:08;;;;;;;63.47;27.13;;;0.70;92.40;;;;;;5041823;28;20099;-65
2020/12/05 08:33:45;;;;;;;70.63;30.85;;;0.80;92.30;;;;;;5039812;28;20025;-64
2020/12/05 08:36:32;;;;;;;67.45;29.85;;;0.70;92.30;;;;;;5042352;28;20039;-64
2020/12/05 08:39:06;;;;;;;71.40;31.35;;;0.80;92.40;;;;;;5038850;28;20540;-64
2020/12/05 08:41:46;;;;;;;84.85;32.80;;;0.80;92.30;;;;;;5042315;28;20478;-65
2020/12/05 08:44:17;;;;;;;59.53;25.83;;;0.80;92.50;;;;;;5050337;28;20032;-67
2020/12/05 08:46:43;;;;;;;55.08;24.38;;;0.80;92.30;;;;;;5035729;28;20171;-67
2020/12/05 08:49:20;;;;;;;63.40;27.88;;;0.80;92.20;;;;;;5043522;28;20052;-64
2020/12/05 08:51:52;;;;;;;82.72;33.20;;;0.80;92.10;;;;;;5053579;28;20489;-64
2020/12/05 08:54:18;;;;;;;56.72;25.42;;;0.80;92.20;;;;;;5054258;28;20050;-64
2020/12/05 08:56:44;;;;;;;62.08;29.92;;;0.80;92.10;;;;;;5041475;28;20108;-65
2020/12/05 08:59:23;;;;;;;62.22;28.38;;;0.80;92.20;;;;;;5038557;28;20109;-64
2020/12/05 09:01:53;;;;;;;66.15;30.75;;;0.80;92.30;;;;;;5042241;28;20038;-64
2020/12/05 09:04:33;;;;;;;56.55;26.23;;;0.80;92.20;;;;;;5033524;28;20032;-64
2020/12/05 09:07:07;;;;;;;68.53;27.30;;;0.80;92.10;;;;;;5034503;28;20040;-63
2020/12/05 09:09:33;;;;;;;74.45;29.08;;;0.80;92.30;;;;;;5036945;28;20025;-66
2020/12/05 09:12:10;;;;;;;78.75;34.75;;;0.90;92.30;;;;;;5043941;28;20036;-65
2020/12/05 09:14:37;;;;;;;75.88;34.08;;;0.90;92.40;;;;;;5049647;28;20032;-68
2020/12/05 09:17:04;;;;;;;59.03;26.83;;;0.90;92.40;;;;;;5045227;28;20028;-64
2020/12/05 09:19:33;;;;;;;63.95;28.55;;;1.00;92.30;;;;;;5044331;28;20028;-64
2020/12/05 09:21:58;;;;;;;60.97;28.83;;;1.00;92.10;;;;;;5043502;28;20032;-65
2020/12/05 09:24:25;;;;;;;60.17;27.98;;;1.00;92.20;;;;;;5040913;28;20041;-66
2020/12/05 09:26:59;;;;;;;40.58;18.95;;;1.00;92.30;;;;;;5058226;28;20375;-66
2020/12/05 09:29:25;;;;;;;56.22;26.15;;;1.00;92.40;;;;;;5071754;28;20074;-67
2020/12/05 09:31:56;;;;;;;47.75;22.17;;;1.10;92.20;;;;;;5056225;28;20040;-65
2020/12/05 09:34:34;;;;;;;46.13;23.40;;;1.10;92.10;;;;;;5063556;28;20060;-65
2020/12/05 09:37:00;;;;;;;61.22;26.40;;;1.10;92.00;;;;;;5070210;28;20039;-68
2020/12/05 09:39:26;;;;;;;41.85;20.20;;;1.10;92.20;;;;;;5065199;28;20017;-65
2020/12/05 09:41:52;;;;;;;45.50;22.48;;;1.10;92.10;;;;;;5073391;28;20028;-65
2020/12/05 09:44:18;;;;;;;52.10;23.73;;;1.10;92.00;;;;;;5064289;28;20028;-64
2020/12/05 09:46:43;;;;;;;53.63;23.70;;;1.10;92.00;;;;;;5062074;28;20083;-64
2020/12/05 09:49:09;;;;;;;51.25;26.00;;;1.10;92.10;;;;;;5056224;28;20078;-66
2020/12/05 09:51:35;;;;;;;47.80;24.02;;;1.10;92.10;;;;;;5053659;28;20032;-65
2020/12/05 09:54:00;;;;;;;45.78;24.00;;;1.10;92.20;;;;;;5057420;28;20025;-64
2020/12/05 09:56:26;;;;;;;49.72;24.95;;;1.20;92.20;;;;;;5068881;28;20033;-66
2020/12/05 09:58:52;;;;;;;42.75;20.30;;;1.20;92.20;;;;;;5077818;28;20032;-65
2020/12/05 10:01:17;;;;;;;44.78;22.02;;;1.20;91.90;;;;;;5075866;28;20035;-64
2020/12/05 10:03:43;;;;;;;42.85;21.63;;;1.10;91.70;;;;;;5053200;28;20029;-65
2020/12/05 10:06:09;;;;;;;47.10;23.20;;;1.20;91.80;;;;;;5036864;28;20479;-64
2020/12/05 10:08:35;;;;;;;43.85;21.33;;;1.10;91.90;;;;;;5077279;28;20040;-64
2020/12/05 10:11:00;;;;;;;43.83;21.38;;;1.10;91.80;;;;;;5057934;28;20112;-63
2020/12/05 10:13:26;;;;;;;40.90;18.83;;;1.20;91.80;;;;;;5056932;28;20033;-64
2020/12/05 10:15:52;;;;;;;43.13;21.92;;;1.10;91.60;;;;;;5057108;28;20514;-63
2020/12/05 10:18:17;;;;;;;38.33;19.42;;;1.10;91.60;;;;;;5048018;28;20031;-65
2020/12/05 10:20:43;;;;;;;44.28;23.50;;;1.10;91.60;;;;;;5036956;28;20525;-65
2020/12/05 10:23:09;;;;;;;44.30;22.13;;;1.10;91.70;;;;;;5052155;28;20033;-64
2020/12/05 10:25:34;;;;;;;46.63;21.50;;;1.10;91.60;;;;;;5051050;28;20052;-64
2020/12/05 10:28:00;;;;;;;42.33;21.27;;;1.10;91.60;;;;;;5059526;28;20033;-63
2020/12/05 10:30:26;;;;;;;45.08;21.52;;;1.00;91.50;;;;;;5056569;28;20031;-64
2020/12/05 10:32:51;;;;;;;45.25;21.48;;;1.00;91.50;;;;;;5054728;28;20025;-67
2020/12/05 10:35:17;;;;;;;59.42;27.50;;;1.00;91.50;;;;;;5054846;28;20036;-65
2020/12/05 10:37:43;;;;;;;51.90;25.08;;;1.00;91.60;;;;;;5055290;28;20074;-64
2020/12/05 10:40:09;;;;;;;47.53;22.98;;;1.00;91.70;;;;;;5056588;28;20573;-65
2020/12/05 10:42:34;;;;;;;53.90;24.73;;;1.00;91.60;;;;;;5056653;28;20033;-65
2020/12/05 10:45:00;;;;;;;51.20;23.70;;;1.00;91.70;;;;;;5055133;28;20032;-65
2020/12/05 10:47:26;;;;;;;50.45;22.33;;;1.00;91.80;;;;;;5055611;28;20037;-65
2020/12/05 10:49:51;;;;;;;55.10;26.20;;;1.00;91.60;;;;;;5055837;28;20033;-65
2020/12/05 10:52:17;;;;;;;51.53;23.15;;;1.00;91.60;;;;;;5056299;28;20057;-65
2020/12/05 10:54:43;;;;;;;50.72;21.95;;;1.00;91.60;;;;;;5054962;28;20032;-64
2020/12/05 10:57:09;;;;;;;50.65;24.48;;;1.00;91.50;;;;;;5054964;28;20025;-65
2020/12/05 10:59:35;;;;;;;64.07;26.77;;;0.90;91.40;;;;;;5056325;28;20033;-65
2020/12/05 11:02:01;;;;;;;60.15;27.00;;;0.90;91.40;;;;;;5056189;28;20040;-65
2020/12/05 11:04:27;;;;;;;58.13;22.88;;;0.90;91.50;;;;;;5056195;28;20032;-65
2020/12/05 11:06:57;;;;;;;66.28;27.67;;;0.90;91.30;;;;;;5054905;28;20525;-64
2020/12/05 11:09:23;;;;;;;70.28;29.98;;;0.90;91.30;;;;;;5056042;28;20028;-64
2020/12/05 11:11:48;;;;;;;70.40;28.98;;;0.80;91.30;;;;;;5056009;28;20029;-64
2020/12/05 11:14:14;;;;;;;66.97;26.88;;;0.90;91.50;;;;;;5055772;28;20104;-64
2020/12/05 11:16:40;;;;;;;71.88;29.30;;;0.90;91.40;;;;;;5055721;28;20422;-64
2020/12/05 11:19:05;;;;;;;66.38;26.58;;;0.80;91.30;;;;;;5055867;28;20064;-64
2020/12/05 11:21:31;;;;;;;73.93;29.40;;;0.80;91.30;;;;;;5055749;28;20021;-64
2020/12/05 11:23:57;;;;;;;88.60;33.55;;;0.80;91.40;;;;;;5055390;28;20395;-65
2020/12/05 11:26:23;;;;;;;87.70;33.75;;;0.80;91.60;;;;;;5054319;28;20088;-65
2020/12/05 11:28:49;;;;;;;81.85;29.30;;;0.90;91.70;;;;;;5054346;28;20532;-65
2020/12/05 11:31:16;;;;;;;87.43;30.33;;;0.90;91.60;;;;;;5054359;28;20071;-64
2020/12/05 11:33:42;;;;;;;91.72;31.38;;;0.90;91.60;;;;;;5054366;28;20025;-64
2020/12/05 11:36:08;;;;;;;97.03;35.67;;;0.90;91.60;;;;;;5054351;28;20028;-64
2020/12/05 11:38:34;;;;;;;104.88;36.22;;;0.90;91.70;;;;;;5055556;28;20031;-65
2020/12/05 11:40:59;;;;;;;84.97;30.90;;;0.90;91.80;;;;;;5055189;28;20024;-65
2020/12/05 11:43:28;;;;;;;106.90;39.33;;;1.00;91.70;;;;;;5056049;28;20021;-65
2020/12/05 11:45:54;;;;;;;96.63;33.70;;;1.00;91.70;;;;;;5055055;28;20134;-64
2020/12/05 11:48:20;;;;;;;99.63;35.17;;;1.00;91.80;;;;;;5055311;28;20423;-64
2020/12/05 11:50:45;;;;;;;88.80;32.22;;;1.00;91.80;;;;;;5053893;28;20430;-64
2020/12/05 11:53:11;;;;;;;98.10;31.90;;;1.00;91.70;;;;;;5055208;28;20017;-66
2020/12/05 11:55:37;;;;;;;99.68;35.17;;;1.00;91.60;;;;;;5053873;28;20025;-64
2020/12/05 11:58:02;;;;;;;94.45;35.80;;;1.00;91.60;;;;;;5055424;28;20494;-65
2020/12/05 12:00:28;;;;;;;93.43;32.63;;;1.00;91.60;;;;;;5054099;28;20021;-65
2020/12/05 12:02:54;;;;;;;92.32;31.95;;;1.00;91.60;;;;;;5054747;28;20470;-64
2020/12/05 12:05:20;;;;;;;86.80;29.75;;;1.00;91.60;;;;;;5054990;28;20025;-65
2020/12/05 12:07:46;;;;;;;91.38;32.00;;;1.00;91.50;;;;;;5053427;28;20136;-67
2020/12/05 12:10:12;;;;;;;90.88;33.60;;;1.00;91.50;;;;;;5053727;28;20057;-65
2020/12/05 12:12:38;;;;;;;88.97;33.92;;;1.00;91.50;;;;;;5053631;28;20024;-65
2020/12/05 12:15:04;;;;;;;93.82;35.20;;;1.00;91.70;;;;;;5054543;28;20032;-64
2020/12/05 12:17:30;;;;;;;66.65;25.45;;;1.10;91.70;;;;;;5054731;28;20025;-65
2020/12/05 12:19:56;;;;;;;67.82;25.85;;;1.10;91.70;;;;;;5054685;28;20447;-64
2020/12/05 12:22:21;;;;;;;62.63;25.25;;;1.10;91.60;;;;;;5054634;28;20029;-66
2020/12/05 12:24:47;;;;;;;58.75;22.40;;;1.10;91.60;;;;;;5053238;28;20056;-64
2020/12/05 12:27:13;;;;;;;63.17;24.77;;;1.10;91.60;;;;;;5054327;28;20029;-64
2020/12/05 12:29:38;;;;;;;57.55;23.10;;;1.10;91.60;;;;;;5054525;28;20482;-64
2020/12/05 12:32:04;;;;;;;62.90;24.67;;;1.10;91.60;;;;;;5053265;28;20033;-64
2020/12/05 12:34:32;;;;;;;51.35;21.67;;;1.20;91.70;;;;;;5054620;28;20108;-64
2020/12/05 12:37:03;;;;;;;56.33;23.70;;;1.20;91.60;;;;;;5054414;28;20499;-64
2020/12/05 12:39:28;;;;;;;46.08;19.20;;;1.20;91.70;;;;;;5054590;28;20056;-64
2020/12/05 12:41:54;;;;;;;47.90;20.88;;;1.20;91.60;;;;;;5053062;28;20443;-64